createdAt,value
2023-05-18T00:00:13.428Z,44.67
2023-05-18T00:01:16.417Z,44.56
2023-05-18T00:02:19.053Z,44.62
2023-05-18T00:03:21.887Z,44.66
2023-05-18T00:04:25.155Z,44.58
2023-05-18T00:05:27.947Z,44.68
2023-05-18T00:06:31.333Z,44.70
2023-05-18T00:07:34.210Z,44.68
2023-05-18T00:08:37.669Z,44.68
2023-05-18T00:09:39.940Z,44.71
2023-05-18T00:10:42.576Z,44.65
2023-05-18T00:11:44.790Z,44.76
2023-05-18T00:12:47.315Z,44.78
2023-05-18T00:13:49.931Z,44.83
2023-05-18T00:14:52.514Z,44.86
2023-05-18T00:15:54.745Z,44.86
2023-05-18T00:16:57.429Z,44.79
2023-05-18T00:17:59.672Z,44.86
2023-05-18T00:19:02.175Z,44.80
2023-05-18T00:20:06.413Z,44.95
2023-05-18T00:21:08.925Z,44.93
2023-05-18T00:22:11.230Z,45.00
2023-05-18T00:23:13.991Z,45.00
2023-05-18T00:24:18.118Z,45.00
2023-05-18T00:25:21.603Z,45.04
2023-05-18T00:26:24.516Z,45.11
2023-05-18T00:27:27.195Z,45.13
2023-05-18T00:28:29.514Z,45.09
2023-05-18T00:29:31.860Z,45.01
2023-05-18T00:30:34.462Z,44.92
2023-05-18T00:31:37.720Z,44.92
2023-05-18T00:32:42.871Z,44.94
2023-05-18T00:33:46.959Z,44.90
2023-05-18T00:34:49.277Z,44.95
2023-05-18T00:35:51.513Z,45.04
2023-05-18T00:36:54.118Z,45.04
2023-05-18T00:37:56.461Z,45.02
2023-05-18T00:38:59.663Z,45.03
2023-05-18T00:40:02.042Z,45.07
2023-05-18T00:41:04.452Z,45.11
2023-05-18T00:42:06.896Z,45.15
2023-05-18T00:43:09.832Z,45.11
2023-05-18T00:44:12.414Z,45.23
2023-05-18T00:45:14.890Z,45.23
2023-05-18T00:46:17.804Z,45.29
2023-05-18T00:47:20.900Z,45.29
2023-05-18T00:48:23.070Z,45.24
2023-05-18T00:49:26.378Z,45.27
2023-05-18T00:50:28.785Z,45.28
2023-05-18T00:51:32.669Z,45.26
2023-05-18T00:52:36.130Z,45.27
2023-05-18T00:53:39.751Z,45.33
2023-05-18T00:54:43.041Z,45.28
2023-05-18T00:55:45.258Z,45.28
2023-05-18T00:56:48.057Z,45.24
2023-05-18T00:57:52.006Z,45.18
2023-05-18T00:58:55.748Z,45.18
2023-05-18T01:00:02.536Z,45.21
2023-05-18T01:01:05.278Z,45.10
2023-05-18T01:02:08.504Z,44.99
2023-05-18T01:03:11.733Z,45.08
2023-05-18T01:04:14.568Z,45.18
2023-05-18T01:05:17.073Z,45.30
2023-05-18T01:06:19.569Z,45.30
2023-05-18T01:07:22.236Z,45.31
2023-05-18T01:08:26.719Z,45.30
2023-05-18T01:09:29.324Z,45.24
2023-05-18T01:10:34.877Z,45.24
2023-05-18T01:13:18.072Z,45.28
2023-05-18T01:14:29.292Z,45.32
2023-05-18T01:15:36.290Z,45.39
2023-05-18T01:17:00.371Z,45.37
2023-05-18T01:18:23.475Z,45.37
2023-05-18T01:19:44.923Z,45.36
2023-05-18T01:22:19.796Z,45.30
2023-05-18T01:24:02.892Z,45.31
2023-05-18T01:26:40.419Z,45.23
2023-05-18T01:27:44.576Z,45.47
2023-05-18T01:28:48.661Z,45.43
2023-05-18T01:29:52.115Z,45.36
2023-05-18T01:30:57.506Z,45.35
2023-05-18T01:32:00.004Z,45.50
2023-05-18T01:34:16.551Z,45.45
2023-05-18T01:35:19.452Z,45.55
2023-05-18T01:36:22.501Z,45.67
2023-05-18T01:37:24.843Z,45.72
2023-05-18T01:38:28.030Z,45.80
2023-05-18T01:39:30.171Z,45.83
2023-05-18T01:40:36.699Z,45.88
2023-05-18T01:43:01.835Z,45.80
2023-05-18T01:45:43.113Z,45.92
2023-05-18T01:48:16.188Z,45.92
2023-05-18T01:49:35.134Z,45.94
2023-05-18T01:50:39.975Z,46.03
2023-05-18T01:51:45.525Z,45.98
2023-05-18T01:53:06.553Z,45.99
2023-05-18T01:54:10.202Z,46.07
2023-05-18T01:55:15.414Z,46.11
2023-05-18T01:56:18.308Z,46.15
2023-05-18T01:57:26.967Z,46.16
2023-05-18T01:58:30.258Z,46.21
2023-05-18T01:59:33.224Z,46.19
2023-05-18T02:00:36.510Z,46.27
2023-05-18T02:01:38.857Z,46.28
2023-05-18T02:02:41.542Z,46.38
2023-05-18T02:03:44.490Z,46.34
2023-05-18T02:04:47.190Z,46.39
2023-05-18T02:05:49.377Z,46.33
2023-05-18T02:06:53.143Z,46.37
2023-05-18T02:07:55.361Z,46.37
2023-05-18T02:08:57.883Z,46.51
2023-05-18T02:10:00.203Z,46.47
2023-05-18T02:11:03.313Z,46.44
2023-05-18T02:12:07.167Z,46.42
2023-05-18T02:13:09.596Z,46.55
2023-05-18T02:14:11.978Z,46.44
2023-05-18T02:15:15.112Z,46.48
2023-05-18T02:16:18.393Z,46.52
2023-05-18T02:17:20.700Z,46.54
2023-05-18T02:18:22.635Z,46.53
2023-05-18T02:19:25.994Z,46.51
2023-05-18T02:20:30.377Z,46.60
2023-05-18T02:21:32.903Z,46.57
2023-05-18T02:22:36.898Z,46.57
2023-05-18T02:23:40.828Z,46.50
2023-05-18T02:24:43.041Z,46.56
2023-05-18T02:25:46.456Z,46.52
2023-05-18T02:26:49.111Z,46.47
2023-05-18T02:27:52.078Z,46.39
2023-05-18T02:28:54.482Z,46.35
2023-05-18T02:29:57.948Z,46.39
2023-05-18T02:32:19.336Z,46.34
2023-05-18T02:33:21.807Z,46.35
2023-05-18T02:34:24.124Z,46.35
2023-05-18T02:35:26.391Z,46.33
2023-05-18T02:36:29.031Z,46.31
2023-05-18T02:37:31.348Z,46.35
2023-05-18T02:39:47.213Z,46.39
2023-05-18T02:40:49.573Z,46.43
2023-05-18T02:41:52.319Z,46.43
2023-05-18T02:42:55.491Z,46.43
2023-05-18T02:44:00.161Z,46.47
2023-05-18T02:45:02.881Z,46.47
2023-05-18T02:46:06.576Z,46.43
2023-05-18T02:47:09.424Z,46.47
2023-05-18T02:48:11.864Z,46.48
2023-05-18T02:49:14.561Z,46.52
2023-05-18T02:50:17.356Z,46.52
2023-05-18T02:51:20.195Z,46.55
2023-05-18T02:52:23.033Z,46.54
2023-05-18T02:53:26.262Z,46.55
2023-05-18T02:54:30.953Z,46.46
2023-05-18T02:55:34.065Z,46.46
2023-05-18T02:56:39.295Z,46.38
2023-05-18T02:57:43.343Z,46.39
2023-05-18T02:58:45.687Z,46.43
2023-05-18T02:59:55.551Z,46.47
2023-05-18T03:00:58.883Z,46.66
2023-05-18T03:02:02.003Z,46.65
2023-05-18T03:03:05.344Z,46.63
2023-05-18T03:04:09.440Z,46.55
2023-05-18T03:05:13.431Z,46.47
2023-05-18T03:06:16.884Z,46.45
2023-05-18T03:07:21.087Z,46.50
2023-05-18T03:08:24.063Z,46.60
2023-05-18T03:09:26.372Z,46.61
2023-05-18T03:10:29.749Z,46.66
2023-05-18T03:11:32.045Z,46.66
2023-05-18T03:12:34.445Z,46.67
2023-05-18T03:13:36.484Z,46.64
2023-05-18T03:14:38.540Z,46.62
2023-05-18T03:15:40.775Z,46.63
2023-05-18T03:16:44.492Z,46.57
2023-05-18T03:17:49.016Z,46.68
2023-05-18T03:18:51.445Z,46.71
2023-05-18T03:19:54.481Z,46.62
2023-05-18T03:20:57.146Z,46.71
2023-05-18T03:21:59.595Z,46.73
2023-05-18T03:23:01.990Z,46.66
2023-05-18T03:24:06.308Z,46.73
2023-05-18T03:25:10.447Z,46.69
2023-05-18T03:26:13.829Z,46.68
2023-05-18T03:27:16.835Z,46.73
2023-05-18T03:28:20.098Z,46.69
2023-05-18T03:29:22.954Z,46.64
2023-05-18T03:30:25.895Z,46.76
2023-05-18T03:31:28.298Z,46.67
2023-05-18T03:32:32.041Z,46.68
2023-05-18T03:33:34.687Z,46.65
2023-05-18T03:34:37.050Z,46.60
2023-05-18T03:35:40.764Z,46.52
2023-05-18T03:36:44.024Z,46.63
2023-05-18T03:37:46.726Z,46.48
2023-05-18T03:38:49.090Z,46.56
2023-05-18T03:39:52.203Z,46.54
2023-05-18T03:40:55.545Z,46.57
2023-05-18T03:41:57.879Z,46.50
2023-05-18T03:43:00.174Z,46.65
2023-05-18T03:44:02.818Z,46.61
2023-05-18T03:45:07.776Z,46.63
2023-05-18T03:46:10.596Z,46.56
2023-05-18T03:47:12.991Z,46.50
2023-05-18T03:48:15.561Z,46.52
2023-05-18T03:49:17.851Z,46.55
2023-05-18T03:50:20.647Z,46.58
2023-05-18T03:51:23.034Z,46.51
2023-05-18T03:52:25.766Z,46.42
2023-05-18T03:53:28.321Z,46.42
2023-05-18T03:54:32.134Z,46.49
2023-05-18T03:55:34.969Z,46.46
2023-05-18T03:56:37.557Z,46.54
2023-05-18T03:57:40.516Z,46.53
2023-05-18T03:58:42.972Z,46.43
2023-05-18T03:59:45.763Z,46.53
2023-05-18T04:00:48.152Z,46.46
2023-05-18T04:01:50.884Z,46.32
2023-05-18T04:02:53.657Z,46.36
2023-05-18T04:03:59.225Z,46.24
2023-05-18T04:05:02.496Z,46.01
2023-05-18T04:06:06.174Z,46.05
2023-05-18T04:07:08.444Z,45.63
2023-05-18T04:08:11.380Z,45.29
2023-05-18T04:09:14.819Z,45.15
2023-05-18T04:10:17.903Z,44.85
2023-05-18T04:11:20.808Z,44.71
2023-05-18T04:12:23.485Z,44.55
2023-05-18T04:13:25.768Z,44.41
2023-05-18T04:14:28.651Z,44.12
2023-05-18T04:15:31.143Z,43.96
2023-05-18T04:16:34.952Z,43.66
2023-05-18T04:17:37.572Z,43.37
2023-05-18T04:18:40.793Z,43.43
2023-05-18T04:19:44.068Z,43.44
2023-05-18T04:20:48.412Z,43.45
2023-05-18T04:21:50.855Z,43.58
2023-05-18T04:22:54.132Z,43.70
2023-05-18T04:23:57.368Z,43.84
2023-05-18T04:25:00.034Z,43.96
2023-05-18T04:26:03.355Z,44.00
2023-05-18T04:27:09.111Z,44.21
2023-05-18T04:28:11.922Z,44.31
2023-05-18T04:29:15.643Z,44.32
2023-05-18T04:30:19.223Z,44.51
2023-05-18T04:31:21.539Z,44.86
2023-05-18T04:32:24.035Z,44.96
2023-05-18T04:33:27.732Z,45.18
2023-05-18T04:34:30.404Z,45.24
2023-05-18T04:35:33.510Z,45.59
2023-05-18T04:36:36.202Z,45.68
2023-05-18T04:37:39.162Z,45.87
2023-05-18T04:38:43.479Z,45.97
2023-05-18T04:39:45.791Z,46.19
2023-05-18T04:40:50.339Z,46.37
2023-05-18T04:41:53.009Z,46.32
2023-05-18T04:42:55.481Z,46.48
2023-05-18T04:43:59.634Z,46.51
2023-05-18T04:45:02.570Z,46.49
2023-05-18T04:46:06.758Z,46.51
2023-05-18T04:47:09.615Z,46.73
2023-05-18T04:48:13.064Z,46.77
2023-05-18T04:49:16.170Z,46.85
2023-05-18T04:50:19.957Z,47.08
2023-05-18T04:51:22.292Z,46.98
2023-05-18T04:52:25.039Z,47.24
2023-05-18T04:53:27.242Z,47.35
2023-05-18T04:54:29.659Z,47.37
2023-05-18T04:55:33.119Z,47.50
2023-05-18T04:56:37.677Z,48.02
2023-05-18T04:57:39.988Z,48.14
2023-05-18T04:58:42.818Z,48.19
2023-05-18T04:59:45.284Z,48.08
2023-05-18T05:00:47.705Z,47.84
2023-05-18T05:01:51.237Z,47.95
2023-05-18T05:02:54.941Z,47.83
2023-05-18T05:03:58.991Z,47.67
2023-05-18T05:05:01.600Z,47.62
2023-05-18T05:06:06.202Z,47.63
2023-05-18T05:07:08.598Z,47.57
2023-05-18T05:08:11.362Z,47.60
2023-05-18T05:09:14.716Z,47.73
2023-05-18T05:10:19.322Z,47.60
2023-05-18T05:11:21.830Z,47.70
2023-05-18T05:12:24.746Z,47.50
2023-05-18T05:13:27.531Z,47.57
2023-05-18T05:14:30.001Z,47.33
2023-05-18T05:15:33.644Z,47.09
2023-05-18T05:16:37.058Z,46.78
2023-05-18T05:17:39.556Z,46.59
2023-05-18T05:18:45.936Z,45.70
2023-05-18T05:19:47.946Z,45.09
2023-05-18T05:20:50.335Z,44.85
2023-05-18T05:21:52.509Z,44.41
2023-05-18T05:22:55.435Z,44.52
2023-05-18T05:24:00.860Z,44.42
2023-05-18T05:25:05.212Z,43.76
2023-05-18T05:26:09.647Z,43.91
2023-05-18T05:27:11.875Z,43.21
2023-05-18T05:28:14.165Z,43.00
2023-05-18T05:29:17.353Z,43.41
2023-05-18T05:30:19.990Z,42.75
2023-05-18T05:31:22.312Z,42.46
2023-05-18T05:32:25.072Z,42.47
2023-05-18T05:33:27.937Z,41.90
2023-05-18T05:34:30.185Z,41.95
2023-05-18T05:35:33.812Z,41.83
2023-05-18T05:36:37.672Z,41.77
2023-05-18T05:37:40.546Z,41.71
2023-05-18T05:38:43.501Z,40.91
2023-05-18T05:39:47.536Z,40.70
2023-05-18T05:40:53.797Z,40.49
2023-05-18T05:43:07.490Z,40.25
2023-05-18T05:44:10.639Z,40.50
2023-05-18T05:45:13.790Z,40.24
2023-05-18T05:46:23.600Z,40.19
2023-05-18T05:47:30.266Z,39.76
2023-05-18T05:48:37.457Z,40.32
2023-05-18T05:49:42.783Z,39.63
2023-05-18T05:50:47.596Z,39.29
2023-05-18T05:51:52.479Z,39.34
2023-05-18T05:52:55.369Z,38.73
2023-05-18T05:54:00.675Z,38.46
2023-05-18T05:55:04.559Z,38.50
2023-05-18T05:56:11.091Z,38.38
2023-05-18T05:57:15.481Z,38.11
2023-05-18T05:58:17.974Z,37.72
2023-05-18T05:59:24.545Z,37.59
2023-05-18T06:00:28.957Z,37.70
2023-05-18T06:01:33.053Z,37.75
2023-05-18T06:02:36.894Z,37.87
2023-05-18T06:03:39.430Z,37.22
2023-05-18T06:04:45.635Z,37.02
2023-05-18T06:05:47.951Z,37.47
2023-05-18T06:06:52.031Z,37.02
2023-05-18T06:07:55.616Z,36.91
2023-05-18T06:08:57.850Z,36.84
2023-05-18T06:10:00.187Z,36.93
2023-05-18T06:11:02.895Z,36.89
2023-05-18T06:12:06.620Z,36.76
2023-05-18T06:13:16.549Z,36.76
2023-05-18T06:14:30.781Z,36.65
2023-05-18T06:15:33.672Z,36.93
2023-05-18T06:17:53.050Z,37.23
2023-05-18T06:20:06.223Z,37.65
2023-05-18T06:21:08.998Z,37.42
2023-05-18T06:22:11.730Z,37.55
2023-05-18T06:23:16.943Z,37.67
2023-05-18T06:24:37.442Z,37.76
2023-05-18T06:25:45.603Z,37.98
2023-05-18T06:26:50.370Z,38.07
2023-05-18T06:29:04.894Z,38.26
2023-05-18T06:31:23.693Z,37.68
2023-05-18T06:32:28.113Z,37.96
2023-05-18T06:33:31.856Z,38.14
2023-05-18T06:34:34.345Z,38.23
2023-05-18T06:36:46.125Z,38.55
2023-05-18T06:37:48.287Z,38.45
2023-05-18T06:38:50.515Z,38.56
2023-05-18T06:39:52.799Z,38.67
2023-05-18T06:40:57.147Z,38.79
2023-05-18T06:42:00.778Z,38.57
2023-05-18T06:43:05.140Z,38.44
2023-05-18T06:44:10.349Z,38.26
2023-05-18T06:45:14.522Z,38.06
2023-05-18T06:46:27.845Z,37.99
2023-05-18T06:47:35.221Z,38.31
2023-05-18T06:48:38.062Z,38.52
2023-05-18T06:49:42.810Z,38.76
2023-05-18T06:50:51.014Z,38.86
2023-05-18T06:51:56.894Z,38.97
2023-05-18T06:53:03.893Z,39.02
2023-05-18T06:54:07.639Z,38.97
2023-05-18T06:55:10.494Z,38.73
2023-05-18T06:56:18.412Z,38.90
2023-05-18T06:57:24.902Z,39.21
2023-05-18T06:58:27.262Z,39.35
2023-05-18T06:59:31.413Z,38.79
2023-05-18T07:00:34.599Z,39.19
2023-05-18T07:01:38.038Z,38.30
2023-05-18T07:03:51.571Z,38.70
2023-05-18T07:04:54.014Z,38.56
2023-05-18T07:05:56.223Z,38.22
2023-05-18T07:06:59.734Z,38.53
2023-05-18T07:08:04.896Z,37.93
2023-05-18T07:09:09.313Z,37.16
2023-05-18T07:10:13.071Z,38.00
2023-05-18T07:11:15.452Z,37.30
2023-05-18T07:12:17.754Z,36.78
2023-05-18T07:13:20.235Z,36.38
2023-05-18T07:14:24.327Z,36.10
2023-05-18T07:15:26.571Z,36.16
2023-05-18T07:16:31.359Z,36.20
2023-05-18T07:17:33.669Z,36.38
2023-05-18T07:18:36.455Z,35.74
2023-05-18T07:19:40.570Z,35.96
2023-05-18T07:20:48.787Z,35.74
2023-05-18T07:21:51.077Z,35.33
2023-05-18T07:24:09.752Z,35.80
2023-05-18T07:25:11.987Z,35.33
2023-05-18T07:27:24.098Z,35.14
2023-05-18T07:28:26.343Z,35.50
2023-05-18T07:29:29.606Z,35.37
2023-05-18T07:31:47.937Z,34.33
2023-05-18T07:32:53.095Z,33.78
2023-05-18T07:33:57.011Z,33.62
2023-05-18T07:35:01.778Z,33.78
2023-05-18T07:36:07.267Z,34.25
2023-05-18T07:37:09.812Z,33.69
2023-05-18T07:38:14.625Z,33.37
2023-05-18T07:39:21.881Z,33.12
2023-05-18T07:40:25.147Z,32.91
2023-05-18T07:41:30.439Z,32.75
2023-05-18T07:42:32.801Z,32.34
2023-05-18T07:43:36.233Z,32.23
2023-05-18T07:44:40.119Z,32.47
2023-05-18T07:45:42.650Z,32.94
2023-05-18T07:46:47.224Z,32.43
2023-05-18T07:47:51.617Z,32.65
2023-05-18T07:48:54.843Z,32.52
2023-05-18T07:49:58.758Z,32.16
2023-05-18T07:51:03.492Z,32.30
2023-05-18T07:52:08.334Z,32.38
2023-05-18T07:53:21.282Z,32.08
2023-05-18T07:54:27.500Z,32.18
2023-05-18T07:55:34.806Z,32.21
2023-05-18T07:56:38.724Z,31.79
2023-05-18T07:58:51.115Z,31.73
2023-05-18T07:59:53.477Z,31.62
2023-05-18T08:00:56.087Z,31.81
2023-05-18T08:01:59.157Z,31.79
2023-05-18T08:03:01.784Z,32.05
2023-05-18T08:04:04.820Z,31.82
2023-05-18T08:05:08.252Z,31.57
2023-05-18T08:06:11.043Z,31.61
2023-05-18T08:07:18.166Z,32.18
2023-05-18T08:08:20.327Z,32.20
2023-05-18T08:09:23.089Z,31.30
2023-05-18T08:10:25.908Z,31.17
2023-05-18T08:11:28.212Z,31.11
2023-05-18T08:12:30.405Z,31.30
2023-05-18T08:13:34.343Z,31.21
2023-05-18T08:14:36.805Z,30.82
2023-05-18T08:15:39.710Z,31.07
2023-05-18T08:16:42.382Z,30.89
2023-05-18T08:17:45.208Z,31.20
2023-05-18T08:18:48.816Z,30.74
2023-05-18T08:19:51.227Z,30.27
2023-05-18T08:20:54.440Z,30.81
2023-05-18T08:21:56.786Z,30.51
2023-05-18T08:23:00.696Z,30.83
2023-05-18T08:24:03.921Z,30.66
2023-05-18T08:25:07.732Z,30.68
2023-05-18T08:26:13.816Z,31.42
2023-05-18T08:27:16.635Z,30.60
2023-05-18T08:29:30.138Z,30.52
2023-05-18T08:30:32.390Z,30.42
2023-05-18T08:31:37.900Z,30.46
2023-05-18T08:32:40.464Z,30.59
2023-05-18T08:33:43.303Z,30.12
2023-05-18T08:34:49.075Z,29.99
2023-05-18T08:35:51.452Z,29.85
2023-05-18T08:36:53.763Z,29.92
2023-05-18T08:37:55.971Z,29.86
2023-05-18T08:38:58.680Z,29.75
2023-05-18T08:40:01.197Z,29.65
2023-05-18T08:41:22.040Z,30.15
2023-05-18T08:42:41.507Z,29.72
2023-05-18T08:43:38.517Z,29.46
2023-05-18T08:44:46.722Z,29.41
2023-05-18T08:47:09.863Z,29.48
2023-05-18T08:48:12.810Z,29.74
2023-05-18T08:49:17.679Z,29.60
2023-05-18T08:50:23.452Z,29.53
2023-05-18T08:51:28.328Z,29.68
2023-05-18T08:52:35.161Z,29.95
2023-05-18T08:53:38.153Z,29.57
2023-05-18T08:54:41.932Z,29.57
2023-05-18T08:55:45.711Z,29.18
2023-05-18T08:56:48.974Z,29.10
2023-05-18T08:57:54.507Z,28.96
2023-05-18T08:58:57.958Z,28.74
2023-05-18T09:00:02.227Z,29.48
2023-05-18T09:01:04.751Z,29.17
2023-05-18T09:02:08.898Z,29.13
2023-05-18T09:03:11.795Z,28.96
2023-05-18T09:04:14.725Z,28.95
2023-05-18T09:05:20.551Z,28.97
2023-05-18T09:06:24.244Z,28.64
2023-05-18T09:07:26.550Z,28.67
2023-05-18T09:08:29.093Z,28.67
2023-05-18T09:09:31.613Z,28.79
2023-05-18T09:10:35.424Z,28.69
2023-05-18T09:11:37.870Z,28.96
2023-05-18T09:12:42.530Z,28.73
2023-05-18T09:13:45.440Z,28.69
2023-05-18T09:14:48.505Z,28.87
2023-05-18T09:15:50.721Z,28.76
2023-05-18T09:16:53.431Z,28.80
2023-05-18T09:17:56.258Z,28.72
2023-05-18T09:18:59.922Z,29.05
2023-05-18T09:20:03.321Z,29.46
2023-05-18T09:21:06.446Z,29.24
2023-05-18T09:22:08.802Z,29.32
2023-05-18T09:23:14.051Z,29.04
2023-05-18T09:24:17.147Z,29.01
2023-05-18T09:25:22.004Z,28.79
2023-05-18T09:26:24.483Z,29.29
2023-05-18T09:27:27.636Z,28.92
2023-05-18T09:28:41.246Z,28.59
2023-05-18T09:29:54.180Z,28.37
2023-05-18T09:30:57.869Z,28.16
2023-05-18T09:32:04.972Z,27.53
2023-05-18T09:34:23.393Z,27.93
2023-05-18T09:35:25.625Z,27.70
2023-05-18T09:36:28.582Z,27.85
2023-05-18T09:38:46.412Z,28.30
2023-05-18T09:40:02.329Z,27.93
2023-05-18T09:41:09.275Z,27.93
2023-05-18T09:42:11.915Z,28.54
2023-05-18T09:43:16.691Z,28.35
2023-05-18T09:44:23.733Z,28.44
2023-05-18T09:45:26.333Z,28.44
2023-05-18T09:46:34.987Z,28.34
2023-05-18T09:47:37.656Z,28.16
2023-05-18T09:48:47.344Z,28.41
2023-05-18T09:49:49.510Z,28.27
2023-05-18T09:50:52.018Z,28.38
2023-05-18T09:51:54.226Z,28.42
2023-05-18T09:52:56.315Z,28.72
2023-05-18T09:53:59.296Z,28.49
2023-05-18T09:55:01.634Z,28.87
2023-05-18T09:56:06.134Z,28.55
2023-05-18T09:57:11.238Z,28.44
2023-05-18T09:58:13.851Z,28.56
2023-05-18T09:59:16.407Z,28.74
2023-05-18T10:00:21.684Z,28.38
2023-05-18T10:01:25.546Z,28.48
2023-05-18T10:02:28.000Z,29.09
2023-05-18T10:04:45.442Z,28.86
2023-05-18T10:05:48.200Z,29.25
2023-05-18T10:06:51.056Z,29.10
2023-05-18T10:07:55.452Z,29.17
2023-05-18T10:08:58.447Z,28.88
2023-05-18T10:10:02.286Z,28.81
2023-05-18T10:11:05.626Z,28.76
2023-05-18T10:12:17.062Z,28.62
2023-05-18T10:13:19.686Z,28.83
2023-05-18T10:14:25.756Z,29.03
2023-05-18T10:15:28.003Z,28.78
2023-05-18T10:16:31.525Z,28.80
2023-05-18T10:17:34.389Z,28.40
2023-05-18T10:18:39.045Z,28.51
2023-05-18T10:19:42.260Z,28.75
2023-05-18T10:20:47.410Z,28.94
2023-05-18T10:21:52.256Z,28.65
2023-05-18T10:22:56.034Z,28.70
2023-05-18T10:24:00.717Z,28.79
2023-05-18T10:25:06.219Z,28.80
2023-05-18T10:26:10.507Z,28.80
2023-05-18T10:27:14.205Z,29.03
2023-05-18T10:29:38.279Z,29.19
2023-05-18T10:30:41.024Z,28.82
2023-05-18T10:31:45.460Z,28.78
2023-05-18T10:32:48.609Z,29.02
2023-05-18T10:33:52.916Z,28.61
2023-05-18T10:34:59.791Z,28.49
2023-05-18T10:36:06.728Z,28.67
2023-05-18T10:42:23.338Z,28.75
2023-05-18T10:43:27.561Z,28.38
2023-05-18T10:45:47.608Z,28.22
2023-05-18T10:46:50.018Z,28.15
2023-05-18T10:49:03.788Z,28.06
2023-05-18T10:50:08.794Z,28.01
2023-05-18T10:51:12.707Z,27.94
2023-05-18T10:52:20.819Z,27.81
2023-05-18T10:53:25.801Z,27.87
2023-05-18T10:54:28.538Z,28.20
2023-05-18T10:55:31.137Z,28.42
2023-05-18T10:56:34.725Z,28.25
2023-05-18T10:59:19.347Z,28.30
2023-05-18T11:00:22.383Z,28.10
2023-05-18T11:01:25.483Z,28.20
2023-05-18T11:03:44.805Z,28.24
2023-05-18T11:04:50.190Z,28.22
2023-05-18T11:06:07.891Z,28.03
2023-05-18T11:07:14.656Z,28.35
2023-05-18T11:08:27.555Z,28.18
2023-05-18T11:09:30.758Z,28.75
2023-05-18T11:10:43.807Z,29.01
2023-05-18T11:11:53.958Z,29.17
2023-05-18T11:13:00.834Z,29.04
2023-05-18T11:14:03.177Z,29.23
2023-05-18T11:15:07.030Z,28.94
2023-05-18T11:16:37.979Z,28.88
2023-05-18T11:17:43.602Z,28.95
2023-05-18T11:18:49.657Z,29.15
2023-05-18T11:20:08.180Z,28.95
2023-05-18T11:21:39.694Z,29.12
2023-05-18T11:22:49.091Z,29.06
2023-05-18T11:25:29.247Z,29.53
2023-05-18T11:26:32.024Z,29.37
2023-05-18T11:27:34.600Z,29.17
2023-05-18T11:28:44.766Z,28.91
2023-05-18T11:29:47.835Z,28.82
2023-05-18T11:30:52.122Z,28.91
2023-05-18T11:31:56.389Z,29.21
2023-05-18T11:33:17.454Z,29.11
2023-05-18T11:34:43.617Z,29.38
2023-05-18T11:36:01.668Z,29.70
2023-05-18T11:38:23.833Z,28.85
2023-05-18T11:39:29.423Z,29.33
2023-05-18T11:40:50.402Z,29.40
2023-05-18T11:42:02.114Z,29.58
2023-05-18T11:43:04.468Z,29.14
2023-05-18T11:44:15.352Z,28.90
2023-05-18T11:46:33.281Z,29.12
2023-05-18T11:47:37.094Z,29.45
2023-05-18T11:48:41.275Z,29.29
2023-05-18T11:50:57.657Z,28.72
2023-05-18T11:52:15.907Z,28.58
2023-05-18T11:53:18.490Z,28.65
2023-05-18T11:54:24.508Z,28.63
2023-05-18T11:55:30.948Z,28.71
2023-05-18T11:56:33.426Z,28.89
2023-05-18T11:57:39.438Z,29.21
2023-05-18T11:58:41.921Z,29.02
2023-05-18T11:59:46.038Z,28.82
2023-05-18T12:00:54.336Z,28.78
2023-05-18T12:02:01.034Z,28.74
2023-05-18T12:03:05.028Z,28.82
2023-05-18T12:04:07.572Z,28.52
2023-05-18T12:05:12.268Z,28.50
2023-05-18T12:06:15.667Z,28.50
2023-05-18T12:07:19.965Z,28.20
2023-05-18T12:08:28.341Z,28.22
2023-05-18T12:09:38.716Z,28.17
2023-05-18T12:10:43.950Z,28.39
2023-05-18T12:11:46.321Z,28.57
2023-05-18T12:12:53.283Z,28.52
2023-05-18T12:13:59.575Z,28.63
2023-05-18T12:15:06.026Z,28.60
2023-05-18T12:16:13.268Z,28.39
2023-05-18T12:17:15.815Z,28.53
2023-05-18T12:18:18.916Z,28.49
2023-05-18T12:19:24.569Z,28.21
2023-05-18T12:20:32.044Z,28.62
2023-05-18T12:21:41.524Z,28.75
2023-05-18T12:22:50.149Z,28.92
2023-05-18T12:24:00.459Z,28.57
2023-05-18T12:25:02.838Z,28.31
2023-05-18T12:27:15.813Z,28.08
2023-05-18T12:28:18.168Z,28.24
2023-05-18T12:29:21.004Z,28.01
2023-05-18T12:30:25.820Z,28.20
2023-05-18T12:31:28.242Z,28.55
2023-05-18T12:32:30.491Z,28.84
2023-05-18T12:33:34.267Z,28.41
2023-05-18T12:34:38.097Z,28.43
2023-05-18T12:35:40.640Z,28.57
2023-05-18T12:36:51.476Z,28.61
2023-05-18T12:37:54.884Z,28.40
2023-05-18T12:38:57.575Z,28.94
2023-05-18T12:40:01.147Z,28.47
2023-05-18T12:42:14.180Z,29.33
2023-05-18T12:43:16.711Z,29.10
2023-05-18T12:44:19.016Z,28.49
2023-05-18T12:45:23.774Z,28.50
2023-05-18T12:46:26.340Z,28.39
2023-05-18T12:47:32.257Z,28.85
2023-05-18T12:50:11.108Z,27.91
2023-05-18T12:51:19.437Z,27.25
2023-05-18T12:52:21.656Z,27.38
2023-05-18T12:53:24.933Z,27.54
2023-05-18T12:54:28.713Z,27.41
2023-05-18T12:59:00.275Z,27.52
2023-05-18T13:00:03.872Z,27.25
2023-05-18T13:01:08.080Z,27.73
2023-05-18T13:02:15.236Z,27.78
2023-05-18T13:03:19.699Z,28.49
2023-05-18T13:04:22.556Z,27.46
2023-05-18T13:05:25.115Z,28.30
2023-05-18T13:06:28.059Z,28.28
2023-05-18T13:07:30.488Z,28.16
2023-05-18T13:08:34.569Z,28.51
2023-05-18T13:09:41.410Z,28.91
2023-05-18T13:10:44.624Z,28.42
2023-05-18T13:12:03.611Z,27.89
2023-05-18T13:12:55.611Z,27.96
2023-05-18T13:14:02.529Z,27.94
2023-05-18T13:16:27.528Z,27.54
2023-05-18T13:17:29.809Z,27.53
2023-05-18T13:18:32.408Z,27.38
2023-05-18T13:19:34.734Z,27.51
2023-05-18T13:20:48.200Z,27.59
2023-05-18T13:21:57.942Z,27.16
2023-05-18T13:24:27.651Z,27.35
2023-05-18T13:25:32.502Z,27.40
2023-05-18T13:26:35.162Z,27.48
2023-05-18T13:27:38.413Z,27.66
2023-05-18T13:28:40.588Z,27.54
2023-05-18T13:29:43.356Z,27.38
2023-05-18T13:30:47.011Z,27.51
2023-05-18T13:31:49.594Z,27.61
2023-05-18T13:32:52.472Z,27.72
2023-05-18T13:35:11.392Z,27.89
2023-05-18T13:36:14.146Z,28.21
2023-05-18T13:37:19.011Z,28.34
2023-05-18T13:38:21.306Z,28.22
2023-05-18T13:40:33.849Z,27.92
2023-05-18T13:41:36.638Z,28.18
2023-05-18T13:42:39.119Z,28.11
2023-05-18T13:43:43.376Z,28.15
2023-05-18T13:44:45.719Z,28.61
2023-05-18T13:45:48.041Z,27.91
2023-05-18T13:46:50.552Z,27.61
2023-05-18T13:47:52.871Z,27.68
2023-05-18T13:48:55.351Z,27.19
2023-05-18T13:49:58.789Z,27.91
2023-05-18T13:52:16.586Z,27.93
2023-05-18T13:53:19.359Z,27.88
2023-05-18T13:54:22.168Z,27.58
2023-05-18T13:55:24.366Z,27.46
2023-05-18T13:56:27.611Z,27.44
2023-05-18T13:57:31.952Z,27.75
2023-05-18T13:58:37.226Z,28.12
2023-05-18T14:00:56.781Z,27.61
2023-05-18T14:01:58.978Z,27.68
2023-05-18T14:03:01.780Z,27.48
2023-05-18T14:04:04.373Z,27.50
2023-05-18T14:05:07.792Z,27.36
2023-05-18T14:06:10.619Z,27.54
2023-05-18T14:07:19.473Z,27.90
2023-05-18T14:08:22.843Z,28.61
2023-05-18T14:09:25.164Z,28.55
2023-05-18T14:10:27.457Z,28.57
2023-05-18T14:11:29.576Z,28.26
2023-05-18T14:12:32.364Z,27.39
2023-05-18T14:13:34.909Z,27.94
2023-05-18T14:14:37.571Z,28.10
2023-05-18T14:15:39.760Z,28.04
2023-05-18T14:16:42.242Z,28.44
2023-05-18T14:17:44.571Z,28.36
2023-05-18T14:18:47.211Z,27.50
2023-05-18T14:19:49.388Z,28.54
2023-05-18T14:20:51.708Z,27.72
2023-05-18T14:21:55.073Z,28.26
2023-05-18T14:22:57.350Z,28.57
2023-05-18T14:23:59.744Z,27.62
2023-05-18T14:25:02.868Z,28.01
2023-05-18T14:26:06.693Z,28.33
2023-05-18T14:27:11.902Z,27.72
2023-05-18T14:28:14.289Z,28.44
2023-05-18T14:29:16.568Z,27.70
2023-05-18T14:30:18.903Z,27.65
2023-05-18T14:31:21.182Z,27.79
2023-05-18T14:32:23.914Z,27.73
2023-05-18T14:34:41.595Z,28.42
2023-05-18T14:35:43.942Z,28.47
2023-05-18T14:36:47.149Z,28.55
2023-05-18T14:37:50.075Z,27.66
2023-05-18T14:38:52.189Z,27.30
2023-05-18T14:39:54.378Z,27.18
2023-05-18T14:40:56.924Z,27.85
2023-05-18T14:41:59.660Z,28.14
2023-05-18T14:43:01.926Z,27.87
2023-05-18T14:44:04.563Z,27.87
2023-05-18T14:45:08.548Z,27.67
2023-05-18T14:46:11.640Z,27.40
2023-05-18T14:47:13.917Z,27.32
2023-05-18T14:48:16.263Z,27.50
2023-05-18T14:49:19.628Z,27.18
2023-05-18T14:50:21.962Z,27.70
2023-05-18T14:51:23.958Z,27.70
2023-05-18T14:52:26.460Z,27.47